Time;durP1;ratioP1;P1;durP2;ratioP2;P2;SDS_P1;SDS_P2;PMS_P1;PMS_P2;Temp;Humidity;BMP_temperature;BMP_pressure;BME280_temperature;BME280_humidity;BME280_pressure;Samples;Min_cycle;Max_cycle;Signal;HPM_P1;HPM_P2
2021/11/20 00:00:54;;;;;;;22.23;10.52;;;8.10;99.90;;;;;;5034811;28;20076;-71
2021/11/20 00:03:20;;;;;;;24.83;12.07;;;8.20;99.90;;;;;;5035301;28;20032;-71
2021/11/20 00:05:50;;;;;;;25.00;11.38;;;8.10;99.90;;;;;;5034668;28;20029;-71
2021/11/20 00:08:16;;;;;;;21.90;11.07;;;8.10;99.90;;;;;;5034944;28;20497;-74
2021/11/20 00:10:45;;;;;;;17.70;9.60;;;8.10;99.90;;;;;;5034873;28;20021;-70
2021/11/20 00:13:11;;;;;;;17.38;10.00;;;8.00;99.90;;;;;;5035172;28;20105;-70
2021/11/20 00:15:50;;;;;;;20.00;10.27;;;7.90;99.90;;;;;;5034423;28;20040;-70
2021/11/20 00:18:17;;;;;;;13.73;9.15;;;7.90;99.90;;;;;;5034771;28;20026;-70
2021/11/20 00:20:48;;;;;;;19.00;9.75;;;7.80;99.90;;;;;;5034954;28;20029;-71
2021/11/20 00:23:17;;;;;;;25.77;10.65;;;7.70;99.90;;;;;;5034413;28;20483;-69
2021/11/20 00:25:55;;;;;;;24.63;11.52;;;7.70;99.90;;;;;;5034218;28;20093;-69
2021/11/20 00:28:39;;;;;;;23.77;12.43;;;7.60;99.90;;;;;;5034607;28;20100;-70
2021/11/20 00:31:06;;;;;;;24.27;12.35;;;7.70;99.90;;;;;;5015976;28;20410;-73
2021/11/20 00:33:34;;;;;;;26.90;11.60;;;7.70;99.90;;;;;;5034160;28;20022;-72
2021/11/20 00:36:02;;;;;;;25.48;12.00;;;7.70;99.90;;;;;;5034144;28;20053;-71
2021/11/20 00:38:29;;;;;;;28.40;13.35;;;7.80;99.90;;;;;;5034069;28;20021;-71
2021/11/20 00:41:11;;;;;;;28.45;14.30;;;7.80;99.90;;;;;;5034018;28;20033;-71
2021/11/20 00:43:38;;;;;;;24.50;11.90;;;7.80;99.90;;;;;;5034542;28;20032;-69
2021/11/20 00:46:04;;;;;;;26.13;11.88;;;7.70;99.90;;;;;;5033841;28;20033;-71
2021/11/20 00:48:30;;;;;;;23.98;11.75;;;7.60;99.90;;;;;;5033884;28;20017;-69
2021/11/20 00:51:00;;;;;;;27.73;12.65;;;7.60;99.90;;;;;;5033810;28;20104;-68
2021/11/20 00:53:27;;;;;;;25.58;11.93;;;7.60;99.90;;;;;;5033752;28;20029;-72
2021/11/20 00:55:53;;;;;;;21.27;11.57;;;7.60;99.90;;;;;;5033544;28;20056;-71
2021/11/20 00:58:19;;;;;;;25.33;11.07;;;7.50;99.90;;;;;;5033696;28;20380;-71
2021/11/20 01:00:54;;;;;;;25.90;13.43;;;7.50;99.90;;;;;;5033659;28;20499;-71
2021/11/20 01:03:20;;;;;;;21.95;11.20;;;7.40;99.90;;;;;;5033679;28;20017;-70
2021/11/20 01:05:46;;;;;;;23.58;12.65;;;7.50;99.90;;;;;;5033502;28;20051;-72
2021/11/20 01:08:14;;;;;;;23.58;13.05;;;7.50;99.90;;;;;;5033591;28;20546;-70
2021/11/20 01:10:43;;;;;;;26.33;13.10;;;7.50;99.90;;;;;;5015793;28;20387;-71
2021/11/20 01:13:11;;;;;;;24.60;14.20;;;7.50;99.90;;;;;;5033508;28;20045;-71
2021/11/20 01:15:43;;;;;;;23.08;11.82;;;7.50;99.90;;;;;;5033407;28;20025;-71
2021/11/20 01:18:10;;;;;;;21.70;12.18;;;7.40;99.90;;;;;;5033721;28;20379;-71
2021/11/20 01:20:37;;;;;;;28.00;12.93;;;7.50;99.90;;;;;;5033666;28;20029;-70
2021/11/20 01:23:03;;;;;;;31.50;13.75;;;7.60;99.90;;;;;;5033315;28;20021;-72
2021/11/20 01:25:30;;;;;;;30.02;14.80;;;7.70;99.90;;;;;;5033529;28;20032;-69
2021/11/20 01:27:55;;;;;;;31.17;14.02;;;7.50;99.90;;;;;;5033521;28;20483;-72
2021/11/20 01:30:22;;;;;;;24.02;14.38;;;7.40;99.90;;;;;;5033221;28;20079;-72
2021/11/20 01:32:48;;;;;;;27.33;14.18;;;7.10;99.90;;;;;;5033187;28;20025;-70
2021/11/20 01:35:16;;;;;;;35.47;15.45;;;6.90;99.90;;;;;;5015476;28;20030;-72
2021/11/20 01:37:43;;;;;;;22.98;12.68;;;6.70;99.90;;;;;;5033194;28;20017;-72
2021/11/20 01:40:12;;;;;;;26.35;14.10;;;7.00;99.90;;;;;;5015465;28;20030;-70
2021/11/20 01:42:39;;;;;;;26.98;14.50;;;7.20;99.90;;;;;;5014934;28;20025;-70
2021/11/20 01:45:27;;;;;;;25.55;14.35;;;7.40;99.90;;;;;;5032778;28;20557;-70
2021/11/20 01:48:11;;;;;;;20.38;11.50;;;7.40;99.90;;;;;;5033350;28;20075;-72
2021/11/20 01:50:40;;;;;;;25.40;13.20;;;6.90;99.90;;;;;;5033111;28;20025;-72
2021/11/20 01:53:36;;;;;;;23.10;13.90;;;6.40;99.90;;;;;;5032922;28;20022;-74
2021/11/20 01:56:14;;;;;;;23.45;12.88;;;6.10;99.90;;;;;;5032993;28;20053;-70
2021/11/20 01:59:27;;;;;;;24.45;13.50;;;6.30;99.90;;;;;;5033616;28;20459;-72
2021/11/20 02:02:23;;;;;;;25.65;14.00;;;6.50;99.90;;;;;;4952972;29;20074;-70
2021/11/20 02:05:01;;;;;;;24.38;14.02;;;6.50;99.90;;;;;;5033163;28;20025;-69
2021/11/20 02:07:36;;;;;;;20.77;13.63;;;6.50;99.90;;;;;;5032934;28;20499;-70
2021/11/20 02:10:02;;;;;;;19.00;12.73;;;6.50;99.90;;;;;;5032907;28;20025;-70
2021/11/20 02:12:35;;;;;;;26.15;13.35;;;6.50;99.90;;;;;;5032875;28;20025;-72
2021/11/20 02:15:01;;;;;;;20.33;12.80;;;6.30;99.90;;;;;;5032871;28;20033;-71
2021/11/20 02:17:36;;;;;;;22.23;12.48;;;6.30;99.90;;;;;;5032857;28;20021;-71
2021/11/20 02:20:09;;;;;;;31.08;14.82;;;6.50;99.90;;;;;;5033392;28;20089;-70
2021/11/20 02:22:35;;;;;;;30.70;13.40;;;6.60;99.90;;;;;;5032793;28;20025;-70
2021/11/20 02:25:01;;;;;;;37.63;13.68;;;6.20;99.90;;;;;;5032696;28;20032;-70
2021/11/20 02:27:32;;;;;;;37.55;15.20;;;6.00;99.90;;;;;;5033030;28;20467;-72
2021/11/20 02:30:18;;;;;;;41.80;15.27;;;6.00;99.90;;;;;;5033000;28;20018;-71
2021/11/20 02:32:46;;;;;;;30.55;13.70;;;6.00;99.90;;;;;;5033236;28;20479;-68
2021/11/20 02:35:14;;;;;;;31.75;13.95;;;6.30;99.90;;;;;;5033079;28;20025;-71
2021/11/20 02:37:41;;;;;;;29.13;14.75;;;6.40;99.90;;;;;;5032633;28;20025;-72
2021/11/20 02:40:07;;;;;;;34.55;14.35;;;6.60;99.90;;;;;;5033140;28;20100;-72
2021/11/20 02:42:34;;;;;;;30.55;15.00;;;6.40;99.90;;;;;;5032593;28;20452;-70
2021/11/20 02:45:00;;;;;;;23.98;14.98;;;6.10;99.90;;;;;;5032478;28;20037;-72
2021/11/20 02:47:31;;;;;;;25.25;13.57;;;6.30;99.90;;;;;;5032555;28;20475;-70
2021/11/20 02:49:57;;;;;;;21.60;11.38;;;6.50;99.90;;;;;;5032575;28;20021;-70
2021/11/20 02:52:23;;;;;;;19.02;12.43;;;6.50;99.90;;;;;;5032446;28;20036;-71
2021/11/20 02:54:50;;;;;;;19.30;12.55;;;6.50;99.90;;;;;;5033832;28;20017;-73
2021/11/20 02:57:18;;;;;;;25.33;14.00;;;6.70;99.90;;;;;;5035842;28;20045;-70
2021/11/20 02:59:44;;;;;;;28.70;15.88;;;6.60;99.90;;;;;;5036251;28;20475;-70
2021/11/20 03:02:11;;;;;;;33.97;13.38;;;6.50;99.90;;;;;;5035877;28;20025;-69
2021/11/20 03:04:37;;;;;;;30.50;15.90;;;6.10;99.90;;;;;;5035899;28;20021;-73
2021/11/20 03:07:03;;;;;;;21.42;13.35;;;5.80;99.90;;;;;;5035761;28;20030;-71
2021/11/20 03:09:32;;;;;;;21.40;13.82;;;5.90;99.90;;;;;;5036313;28;20021;-71
2021/11/20 03:11:58;;;;;;;22.77;13.63;;;6.20;99.90;;;;;;5035768;28;20116;-69
2021/11/20 03:14:25;;;;;;;23.38;13.90;;;6.40;99.90;;;;;;5035713;28;20022;-71
2021/11/20 03:16:57;;;;;;;27.77;14.93;;;6.60;99.90;;;;;;5035629;28;20033;-72
2021/11/20 03:19:27;;;;;;;25.50;14.95;;;6.80;99.90;;;;;;5035889;28;20025;-70
2021/11/20 03:22:10;;;;;;;24.58;13.55;;;7.00;99.90;;;;;;5035572;28;20026;-69
2021/11/20 03:24:36;;;;;;;22.13;13.35;;;6.90;99.90;;;;;;5035801;28;20383;-71
2021/11/20 03:27:02;;;;;;;37.58;14.25;;;6.80;99.90;;;;;;5035352;28;20498;-72
2021/11/20 03:29:28;;;;;;;27.48;14.68;;;6.40;99.90;;;;;;5035371;28;20017;-72
2021/11/20 03:31:55;;;;;;;23.95;14.32;;;6.20;99.90;;;;;;5035318;28;20024;-71
2021/11/20 03:34:23;;;;;;;19.80;13.60;;;6.10;99.90;;;;;;5035334;28;20071;-70
2021/11/20 03:36:49;;;;;;;21.55;13.90;;;6.20;99.90;;;;;;5035245;28;20029;-72
2021/11/20 03:39:16;;;;;;;22.90;14.25;;;6.30;99.90;;;;;;5035199;28;20072;-73
2021/11/20 03:41:42;;;;;;;20.23;13.48;;;6.50;99.90;;;;;;5035150;28;20029;-75
2021/11/20 03:44:08;;;;;;;20.60;12.88;;;6.60;99.90;;;;;;5035175;28;20017;-70
2021/11/20 03:46:35;;;;;;;24.65;14.52;;;6.50;99.90;;;;;;5035013;28;20036;-72
2021/11/20 03:49:02;;;;;;;21.75;12.98;;;6.60;99.90;;;;;;5035074;28;20357;-70
2021/11/20 03:51:29;;;;;;;22.85;14.02;;;6.80;99.90;;;;;;5035081;28;20029;-69
2021/11/20 03:53:54;;;;;;;21.35;12.75;;;6.90;99.90;;;;;;5034922;28;20029;-72
2021/11/20 03:56:20;;;;;;;19.52;13.52;;;6.90;99.90;;;;;;5034759;28;20049;-71
2021/11/20 03:58:46;;;;;;;23.35;14.45;;;7.00;99.90;;;;;;5035154;28;20025;-71
2021/11/20 04:01:16;;;;;;;20.35;13.85;;;7.10;99.90;;;;;;5035382;28;20029;-71
2021/11/20 04:03:44;;;;;;;28.42;14.70;;;7.10;99.90;;;;;;5034860;28;20095;-71
2021/11/20 04:06:15;;;;;;;25.05;15.70;;;6.80;99.90;;;;;;5034015;28;20132;-71
2021/11/20 04:08:42;;;;;;;23.50;15.25;;;6.80;99.90;;;;;;5034730;28;20018;-70
2021/11/20 04:11:08;;;;;;;26.17;14.07;;;6.70;99.90;;;;;;5016927;28;20022;-70
2021/11/20 04:13:36;;;;;;;27.58;14.60;;;6.70;99.90;;;;;;5034594;28;20029;-70
2021/11/20 04:16:03;;;;;;;26.08;14.10;;;6.90;99.90;;;;;;5034571;28;20021;-70
2021/11/20 04:18:29;;;;;;;25.98;14.70;;;7.00;99.90;;;;;;5035055;28;20020;-71
2021/11/20 04:20:55;;;;;;;24.00;13.05;;;7.00;99.90;;;;;;5034460;28;20450;-70
2021/11/20 04:23:21;;;;;;;21.92;12.10;;;6.90;99.90;;;;;;5034366;28;20021;-71
2021/11/20 04:25:47;;;;;;;21.55;13.55;;;6.90;99.90;;;;;;5034874;28;20025;-70
2021/11/20 04:28:13;;;;;;;23.58;12.70;;;6.90;99.90;;;;;;5034589;28;20383;-68
2021/11/20 04:30:40;;;;;;;23.45;12.88;;;7.10;99.90;;;;;;5034264;28;20061;-68
2021/11/20 04:33:06;;;;;;;22.58;12.73;;;7.10;99.90;;;;;;5034467;28;20024;-70
2021/11/20 04:35:32;;;;;;;28.85;14.00;;;7.00;99.90;;;;;;5034174;28;20376;-68
2021/11/20 04:37:58;;;;;;;24.85;13.50;;;7.00;99.90;;;;;;5034073;28;20026;-71
2021/11/20 04:40:24;;;;;;;22.45;12.80;;;7.00;99.90;;;;;;5034086;28;20502;-71
2021/11/20 04:42:51;;;;;;;22.42;12.95;;;6.90;99.90;;;;;;5034059;28;20021;-70
2021/11/20 04:45:22;;;;;;;21.73;12.32;;;7.00;99.90;;;;;;5034194;28;20463;-73
2021/11/20 04:47:48;;;;;;;22.58;12.52;;;6.90;99.90;;;;;;5033988;28;20472;-69
2021/11/20 04:50:15;;;;;;;25.58;12.45;;;6.90;99.90;;;;;;5034173;28;20025;-71
2021/11/20 04:52:41;;;;;;;21.70;12.38;;;6.80;99.90;;;;;;5033825;28;20017;-71
2021/11/20 04:55:10;;;;;;;22.65;12.32;;;6.80;99.90;;;;;;5033599;28;20052;-72
2021/11/20 04:57:36;;;;;;;25.08;12.75;;;6.80;99.90;;;;;;5034107;28;20022;-70
2021/11/20 05:00:07;;;;;;;23.88;13.98;;;6.80;99.90;;;;;;5033709;28;20479;-73
2021/11/20 05:02:33;;;;;;;24.42;13.55;;;6.90;99.90;;;;;;5034308;28;20021;-70
2021/11/20 05:04:58;;;;;;;26.15;14.05;;;6.80;99.90;;;;;;5015892;28;20438;-72
2021/11/20 05:07:24;;;;;;;24.05;14.93;;;6.80;99.90;;;;;;5033883;28;20455;-71
2021/11/20 05:09:50;;;;;;;26.70;13.27;;;6.80;99.90;;;;;;5033824;28;20034;-70
2021/11/20 05:12:16;;;;;;;23.90;14.40;;;6.90;99.90;;;;;;5033518;28;20451;-68
2021/11/20 05:14:41;;;;;;;25.05;13.63;;;6.90;99.90;;;;;;5033531;28;20025;-70
2021/11/20 05:17:08;;;;;;;22.83;13.65;;;7.00;99.90;;;;;;5033553;28;20053;-71
2021/11/20 05:19:34;;;;;;;23.50;13.30;;;7.00;99.90;;;;;;5032711;28;20547;-69
2021/11/20 05:22:00;;;;;;;26.45;14.70;;;7.10;99.90;;;;;;5033411;28;20017;-71
2021/11/20 05:24:25;;;;;;;24.80;14.27;;;7.10;99.90;;;;;;5033412;28;20032;-72
2021/11/20 05:26:53;;;;;;;26.02;14.02;;;7.20;99.90;;;;;;5033815;28;20025;-71
2021/11/20 05:32:04;;;;;;;28.67;13.25;;;7.30;99.90;;;;;;5033333;28;20029;-72
2021/11/20 05:34:30;;;;;;;23.98;15.10;;;7.20;99.90;;;;;;5033247;28;20100;-72
2021/11/20 05:36:56;;;;;;;25.02;13.48;;;7.20;99.90;;;;;;5033487;28;20521;-69
2021/11/20 05:39:21;;;;;;;32.22;13.73;;;7.20;99.90;;;;;;5033437;28;20423;-72
2021/11/20 05:41:47;;;;;;;28.52;13.48;;;7.40;99.90;;;;;;5015454;28;20025;-73
2021/11/20 05:44:14;;;;;;;29.27;14.90;;;7.30;99.90;;;;;;5033114;28;20026;-69
2021/11/20 05:46:40;;;;;;;22.83;13.45;;;7.40;99.90;;;;;;5033573;28;20022;-74
2021/11/20 05:49:07;;;;;;;19.67;11.32;;;7.40;99.90;;;;;;5033100;28;20033;-70
2021/11/20 05:51:36;;;;;;;23.35;11.52;;;7.20;99.90;;;;;;5033364;28;20014;-71
2021/11/20 05:54:04;;;;;;;27.27;12.23;;;7.10;99.90;;;;;;5033035;28;20026;-72
2021/11/20 05:56:30;;;;;;;19.75;11.75;;;7.10;99.90;;;;;;5032938;28;20053;-70
2021/11/20 05:58:56;;;;;;;22.35;11.52;;;7.00;99.90;;;;;;5033044;28;20570;-71
2021/11/20 06:01:23;;;;;;;20.45;12.45;;;7.10;99.90;;;;;;5032937;28;20045;-75
2021/11/20 06:03:49;;;;;;;21.02;12.35;;;7.00;99.90;;;;;;5032967;28;20053;-70
2021/11/20 06:06:16;;;;;;;20.77;11.90;;;7.00;99.90;;;;;;5032879;28;20502;-68
2021/11/20 06:08:41;;;;;;;19.15;11.88;;;7.00;99.90;;;;;;5032641;28;20112;-72
2021/11/20 06:11:07;;;;;;;21.85;12.90;;;7.00;99.90;;;;;;5033159;28;20049;-71
2021/11/20 06:13:34;;;;;;;24.58;13.43;;;7.10;99.90;;;;;;5032874;28;20080;-71
2021/11/20 06:15:59;;;;;;;24.23;12.50;;;7.10;99.90;;;;;;5032851;28;20053;-70
2021/11/20 06:18:25;;;;;;;25.05;13.45;;;7.00;99.90;;;;;;5032771;28;20065;-71
2021/11/20 06:20:52;;;;;;;25.42;12.80;;;7.00;99.90;;;;;;5032806;28;20029;-71
2021/11/20 06:23:19;;;;;;;22.45;13.00;;;7.00;99.90;;;;;;5033299;28;20025;-69
2021/11/20 06:25:46;;;;;;;22.77;12.50;;;7.00;99.90;;;;;;5032672;28;20057;-68
2021/11/20 06:28:12;;;;;;;25.75;12.10;;;6.90;99.90;;;;;;5033001;28;20026;-72
2021/11/20 06:30:38;;;;;;;25.42;13.07;;;6.90;99.90;;;;;;5035433;28;20100;-69
2021/11/20 06:33:04;;;;;;;24.30;13.05;;;6.90;99.90;;;;;;5037054;28;20061;-69
2021/11/20 06:35:32;;;;;;;19.40;11.07;;;7.00;99.90;;;;;;5036435;28;20021;-72
2021/11/20 06:37:59;;;;;;;19.52;11.95;;;6.90;99.90;;;;;;5036385;28;20036;-69
2021/11/20 06:40:34;;;;;;;21.55;12.18;;;6.80;99.90;;;;;;5036201;28;20600;-72
2021/11/20 06:43:00;;;;;;;23.25;12.32;;;6.80;99.90;;;;;;5036359;28;20029;-72
2021/11/20 06:45:29;;;;;;;22.42;11.82;;;6.70;99.90;;;;;;5036136;28;20032;-69
2021/11/20 06:47:55;;;;;;;22.03;12.83;;;6.80;99.90;;;;;;5036226;28;20075;-70
2021/11/20 06:50:22;;;;;;;24.98;13.82;;;6.90;99.90;;;;;;5036170;28;20434;-73
2021/11/20 06:52:49;;;;;;;23.63;12.13;;;7.00;99.90;;;;;;5036031;28;20018;-69
2021/11/20 06:55:15;;;;;;;24.13;12.95;;;7.00;99.90;;;;;;5018099;28;20064;-70
2021/11/20 07:00:26;;;;;;;25.13;12.85;;;6.90;99.90;;;;;;5035934;28;20454;-72
2021/11/20 07:03:18;;;;;;;23.13;13.52;;;6.90;99.90;;;;;;5035968;28;20423;-70
2021/11/20 07:05:51;;;;;;;23.23;12.45;;;6.90;99.90;;;;;;5024976;28;20393;-71
2021/11/20 07:08:17;;;;;;;30.98;13.73;;;7.00;99.90;;;;;;5035837;28;20032;-69
2021/11/20 07:10:44;;;;;;;25.60;12.73;;;6.80;99.90;;;;;;5036018;28;20079;-70
2021/11/20 07:13:10;;;;;;;29.58;15.15;;;6.80;99.90;;;;;;5035618;28;20021;-69
2021/11/20 07:15:36;;;;;;;27.30;14.75;;;6.80;99.90;;;;;;5035635;28;20029;-70
2021/11/20 07:18:03;;;;;;;37.38;14.60;;;7.00;99.90;;;;;;5035597;28;20483;-71
2021/11/20 07:20:32;;;;;;;25.15;14.63;;;7.00;99.90;;;;;;5035850;28;20101;-72
2021/11/20 07:22:59;;;;;;;26.85;13.75;;;7.10;99.90;;;;;;5035518;28;20021;-71
2021/11/20 07:25:26;;;;;;;25.27;13.52;;;7.20;99.90;;;;;;5035387;28;20037;-70
2021/11/20 07:27:54;;;;;;;26.10;14.60;;;7.30;99.90;;;;;;5035442;28;20092;-73
2021/11/20 07:30:21;;;;;;;26.30;15.02;;;7.40;99.90;;;;;;5035370;28;20537;-69
2021/11/20 07:32:47;;;;;;;30.75;15.70;;;7.40;99.90;;;;;;5035639;28;20028;-69
2021/11/20 07:35:32;;;;;;;29.58;15.52;;;7.60;99.90;;;;;;5035360;28;20022;-68
2021/11/20 07:37:58;;;;;;;26.27;14.63;;;7.60;99.90;;;;;;5035571;28;20444;-71
2021/11/20 07:40:26;;;;;;;27.60;13.80;;;7.60;99.90;;;;;;5034860;28;20104;-71
2021/11/20 07:42:52;;;;;;;29.55;15.80;;;7.50;99.90;;;;;;5034606;28;20010;-71
2021/11/20 07:45:19;;;;;;;28.50;14.88;;;7.40;99.90;;;;;;5035086;28;20029;-70
2021/11/20 07:47:44;;;;;;;28.20;16.73;;;7.40;99.90;;;;;;5035021;28;20105;-72
2021/11/20 07:50:11;;;;;;;29.15;15.30;;;7.40;99.90;;;;;;5035598;28;20061;-72
2021/11/20 07:52:36;;;;;;;36.13;17.88;;;7.40;99.90;;;;;;5034838;28;20075;-73
2021/11/20 07:55:03;;;;;;;36.25;20.05;;;7.50;99.90;;;;;;5034784;28;20029;-73
2021/11/20 07:57:29;;;;;;;31.15;18.38;;;7.50;99.90;;;;;;5035171;28;20468;-72
2021/11/20 07:59:55;;;;;;;30.58;16.10;;;7.50;99.90;;;;;;5035138;28;20037;-73
2021/11/20 08:02:21;;;;;;;32.88;16.52;;;7.60;99.90;;;;;;5035110;28;20026;-70
2021/11/20 08:04:46;;;;;;;24.08;14.10;;;7.50;99.90;;;;;;5034790;28;20504;-71
2021/11/20 08:07:12;;;;;;;30.85;15.27;;;7.50;99.90;;;;;;5034968;28;20064;-71
2021/11/20 08:09:38;;;;;;;29.08;16.38;;;7.40;99.90;;;;;;5034695;28;20112;-72
2021/11/20 08:12:05;;;;;;;33.75;16.58;;;7.40;99.90;;;;;;5034318;28;20485;-70
2021/11/20 08:14:30;;;;;;;33.78;17.77;;;7.50;99.90;;;;;;5034535;28;20399;-72
2021/11/20 08:16:56;;;;;;;32.35;17.40;;;7.70;99.90;;;;;;5034438;28;20029;-72
2021/11/20 08:19:23;;;;;;;29.40;16.85;;;7.60;99.90;;;;;;5034419;28;20485;-70
2021/11/20 08:21:48;;;;;;;35.70;17.77;;;7.70;99.90;;;;;;5034366;28;20123;-71
2021/11/20 08:24:15;;;;;;;31.15;17.27;;;7.70;99.90;;;;;;5034373;28;20069;-70
2021/11/20 08:26:43;;;;;;;28.25;15.13;;;7.50;99.90;;;;;;5034575;28;20167;-70
2021/11/20 08:29:22;;;;;;;32.30;16.83;;;7.20;99.90;;;;;;5034584;28;20105;-70
2021/11/20 08:31:50;;;;;;;36.53;15.45;;;7.20;99.90;;;;;;5034827;28;20021;-73
2021/11/20 08:34:17;;;;;;;34.05;18.30;;;7.20;99.90;;;;;;5034493;28;20055;-71
2021/11/20 08:36:45;;;;;;;35.15;17.13;;;7.10;99.90;;;;;;5034156;28;20032;-71
2021/11/20 08:39:14;;;;;;;31.08;15.60;;;7.20;99.90;;;;;;5034596;28;20122;-72
2021/11/20 08:41:44;;;;;;;35.92;17.58;;;7.40;99.90;;;;;;5034082;28;20491;-73
2021/11/20 08:44:10;;;;;;;29.00;16.23;;;7.40;99.90;;;;;;5033778;28;20547;-71
2021/11/20 08:46:36;;;;;;;28.63;15.45;;;7.40;99.90;;;;;;5033676;28;20108;-71
2021/11/20 08:49:02;;;;;;;31.60;15.80;;;7.30;99.90;;;;;;5033879;28;20108;-72
2021/11/20 08:51:29;;;;;;;31.08;16.92;;;7.40;99.90;;;;;;5034209;28;20029;-69
2021/11/20 08:53:55;;;;;;;35.47;15.88;;;7.30;99.90;;;;;;5033535;28;20376;-72
2021/11/20 08:56:22;;;;;;;33.30;17.60;;;7.30;99.90;;;;;;5033710;28;20103;-71
2021/11/20 08:58:48;;;;;;;30.90;16.38;;;7.30;99.90;;;;;;5033796;28;20026;-71
2021/11/20 09:01:17;;;;;;;33.30;18.40;;;7.50;99.90;;;;;;5033983;28;20026;-70
2021/11/20 09:03:43;;;;;;;37.75;17.60;;;7.60;99.90;;;;;;5033686;28;20113;-68
2021/11/20 09:06:15;;;;;;;33.05;16.70;;;7.70;99.90;;;;;;5033559;28;20096;-72
2021/11/20 09:08:49;;;;;;;33.15;18.20;;;7.70;99.90;;;;;;5034220;28;20025;-69
2021/11/20 09:11:26;;;;;;;36.20;18.10;;;7.50;99.90;;;;;;5033876;28;20025;-71
2021/11/20 09:14:00;;;;;;;32.47;16.83;;;7.60;99.90;;;;;;5033877;28;20029;-72
2021/11/20 09:16:28;;;;;;;30.40;16.88;;;7.60;99.90;;;;;;5033742;28;20436;-70
2021/11/20 09:18:56;;;;;;;33.22;19.88;;;7.60;99.90;;;;;;5033413;28;20396;-70
2021/11/20 09:21:22;;;;;;;35.40;18.95;;;7.60;99.90;;;;;;5033644;28;20029;-69
2021/11/20 09:23:50;;;;;;;34.85;17.48;;;7.60;99.90;;;;;;5033939;28;20021;-69
2021/11/20 09:26:17;;;;;;;34.15;15.63;;;7.60;99.90;;;;;;5033527;28;20029;-72
2021/11/20 09:28:44;;;;;;;32.08;16.48;;;7.60;99.90;;;;;;5032900;28;20029;-70
2021/11/20 09:31:10;;;;;;;33.03;16.95;;;7.60;99.90;;;;;;5033183;28;20101;-70
2021/11/20 09:33:37;;;;;;;32.92;18.85;;;7.70;99.90;;;;;;5033859;28;20039;-72
2021/11/20 09:36:04;;;;;;;40.63;18.95;;;7.60;99.90;;;;;;5033258;28;20065;-76
2021/11/20 09:38:31;;;;;;;37.03;19.55;;;7.60;99.90;;;;;;5033573;28;20030;-69
2021/11/20 09:41:13;;;;;;;39.85;19.05;;;7.70;99.90;;;;;;5033636;28;20506;-82
2021/11/20 09:43:42;;;;;;;35.08;17.52;;;7.90;99.90;;;;;;5014962;28;20082;-73
2021/11/20 09:46:17;;;;;;;31.55;16.88;;;8.00;99.90;;;;;;5033266;28;20025;-72
2021/11/20 09:48:52;;;;;;;31.00;16.92;;;8.00;99.90;;;;;;5033667;28;20030;-70
2021/11/20 09:51:35;;;;;;;30.80;17.35;;;7.90;99.90;;;;;;5033202;28;20024;-71
2021/11/20 09:54:21;;;;;;;34.05;18.38;;;7.90;99.90;;;;;;5032945;28;20022;-73
2021/11/20 09:56:54;;;;;;;36.17;17.67;;;7.80;99.90;;;;;;5033140;28;20053;-72
2021/11/20 09:59:40;;;;;;;35.40;17.38;;;7.90;99.90;;;;;;5033278;28;20030;-78
2021/11/20 10:02:11;;;;;;;33.50;17.27;;;7.90;99.90;;;;;;5033160;28;20383;-73
2021/11/20 10:04:52;;;;;;;31.98;16.45;;;8.00;99.90;;;;;;5034103;28;20035;-76
2021/11/20 10:07:35;;;;;;;34.65;15.88;;;8.10;99.90;;;;;;5037200;28;20029;-73
2021/11/20 10:10:04;;;;;;;29.00;15.18;;;8.00;99.90;;;;;;5037335;28;20021;-78
2021/11/20 10:12:49;;;;;;;27.17;15.20;;;8.00;99.90;;;;;;5019891;28;20025;-72
2021/11/20 10:15:23;;;;;;;29.25;14.77;;;8.10;99.90;;;;;;5037386;28;20121;-71
2021/11/20 10:18:16;;;;;;;28.48;15.00;;;8.10;99.90;;;;;;5037251;28;20033;-72
2021/11/20 10:21:09;;;;;;;30.45;15.00;;;8.00;99.90;;;;;;5037019;28;20026;-76
2021/11/20 10:23:53;;;;;;;25.08;14.02;;;8.00;99.90;;;;;;5036912;28;20379;-74
2021/11/20 10:26:46;;;;;;;31.15;15.52;;;8.10;99.90;;;;;;5037163;28;20383;-73
2021/11/20 10:29:52;;;;;;;29.67;16.52;;;8.00;99.90;;;;;;5037032;28;20026;-75
2021/11/20 10:32:52;;;;;;;30.35;17.05;;;8.10;99.90;;;;;;5036646;28;20107;-76
2021/11/20 10:35:42;;;;;;;30.75;16.23;;;8.20;99.90;;;;;;5010615;28;20030;-73
2021/11/20 10:38:19;;;;;;;29.48;15.75;;;8.30;99.90;;;;;;5036571;28;20029;-73
2021/11/20 10:41:10;;;;;;;34.92;18.00;;;8.10;99.90;;;;;;5036584;28;20092;-75
2021/11/20 10:43:44;;;;;;;31.67;14.80;;;8.10;99.90;;;;;;5036607;28;20025;-74
2021/11/20 10:46:30;;;;;;;28.45;16.33;;;8.30;99.90;;;;;;5036234;28;20067;-76
2021/11/20 10:49:21;;;;;;;30.42;16.60;;;8.40;99.90;;;;;;5036546;28;20052;-73
2021/11/20 10:51:46;;;;;;;31.98;15.50;;;8.40;99.90;;;;;;5018572;28;20022;-73
2021/11/20 10:54:42;;;;;;;29.73;16.10;;;8.30;99.90;;;;;;5036410;28;20084;-72
2021/11/20 10:57:20;;;;;;;32.05;15.32;;;8.30;99.90;;;;;;5035730;28;20117;-75
2021/11/20 10:59:45;;;;;;;29.60;15.45;;;8.30;99.90;;;;;;5036234;28;20056;-73
2021/11/20 11:02:48;;;;;;;29.10;15.63;;;8.40;99.90;;;;;;5036379;28;20022;-74
2021/11/20 11:05:20;;;;;;;33.25;16.20;;;8.50;99.90;;;;;;5035677;28;20051;-72
2021/11/20 11:08:00;;;;;;;27.45;14.90;;;8.40;99.90;;;;;;5035975;28;20487;-74
2021/11/20 11:10:43;;;;;;;28.20;15.77;;;8.50;99.90;;;;;;5036092;28;20025;-74
2021/11/20 11:13:50;;;;;;;28.00;15.77;;;8.40;99.90;;;;;;5036031;28;20487;-74
2021/11/20 11:16:19;;;;;;;31.05;17.55;;;8.40;99.90;;;;;;5035336;28;20038;-76
2021/11/20 11:18:55;;;;;;;28.60;14.43;;;8.60;99.90;;;;;;5035834;28;20025;-72
2021/11/20 11:22:00;;;;;;;27.40;15.25;;;8.50;99.90;;;;;;5035969;28;20032;-73
2021/11/20 11:24:43;;;;;;;27.30;15.82;;;8.50;99.90;;;;;;5035805;28;20442;-75
2021/11/20 11:27:19;;;;;;;29.73;15.18;;;8.60;99.90;;;;;;5035778;28;20033;-73
2021/11/20 11:30:02;;;;;;;28.73;14.82;;;8.70;99.90;;;;;;5035613;28;20072;-72
2021/11/20 11:32:30;;;;;;;28.45;15.88;;;8.80;99.90;;;;;;5035226;28;20013;-74
2021/11/20 11:35:04;;;;;;;31.00;15.73;;;8.80;99.90;;;;;;5035363;28;20081;-79
2021/11/20 11:37:55;;;;;;;30.65;16.88;;;8.80;99.90;;;;;;5017293;28;20026;-79
2021/11/20 11:40:51;;;;;;;32.08;16.85;;;8.60;99.90;;;;;;5035529;28;20028;-81
2021/11/20 11:43:27;;;;;;;29.60;18.17;;;8.70;99.90;;;;;;5035159;28;20503;-74
2021/11/20 11:46:21;;;;;;;29.65;17.15;;;8.70;99.90;;;;;;5035370;28;20387;-74
2021/11/20 11:49:14;;;;;;;28.95;15.82;;;8.70;99.90;;;;;;5035366;28;20510;-73
2021/11/20 11:52:16;;;;;;;30.38;16.40;;;8.80;99.90;;;;;;5017517;28;20104;-73
2021/11/20 11:54:49;;;;;;;29.33;16.38;;;8.90;99.90;;;;;;5035689;28;20026;-73
2021/11/20 11:57:15;;;;;;;29.45;15.75;;;8.90;99.90;;;;;;5033745;28;20041;-73
2021/11/20 12:00:08;;;;;;;33.83;15.68;;;8.90;99.90;;;;;;5013931;28;20128;-74
2021/11/20 12:02:37;;;;;;;29.58;15.48;;;8.90;99.90;;;;;;5015602;28;20072;-73
2021/11/20 12:05:29;;;;;;;27.92;14.82;;;8.80;99.90;;;;;;5034445;28;20025;-73
2021/11/20 12:08:20;;;;;;;26.17;15.18;;;8.90;99.90;;;;;;5034764;28;20104;-77
2021/11/20 12:10:55;;;;;;;26.80;16.08;;;8.80;99.90;;;;;;5034840;28;20021;-76
2021/11/20 12:13:40;;;;;;;28.08;15.85;;;8.80;99.90;;;;;;5034623;28;20101;-74
2021/11/20 12:16:34;;;;;;;29.08;14.77;;;9.00;99.90;;;;;;5016593;28;20082;-76
2021/11/20 12:19:04;;;;;;;28.08;15.65;;;8.90;99.90;;;;;;5026618;28;20045;-74
2021/11/20 12:21:58;;;;;;;32.53;17.20;;;8.90;99.90;;;;;;5034530;28;20495;-74
2021/11/20 12:24:46;;;;;;;25.45;14.95;;;8.90;99.90;;;;;;5034734;28;20034;-73
2021/11/20 12:27:47;;;;;;;27.05;16.20;;;8.80;99.90;;;;;;5033792;28;20056;-74
2021/11/20 12:30:22;;;;;;;33.60;18.67;;;8.90;99.90;;;;;;4954491;29;20424;-74
2021/11/20 12:33:32;;;;;;;30.92;18.10;;;8.80;99.90;;;;;;5022551;28;20152;-73
2021/11/20 12:36:16;;;;;;;27.33;16.27;;;8.80;99.90;;;;;;5030177;28;20116;-75
2021/11/20 12:39:00;;;;;;;31.00;17.15;;;8.70;99.90;;;;;;5034411;28;20028;-75
2021/11/20 12:41:47;;;;;;;38.10;18.75;;;8.90;99.90;;;;;;5034393;28;20029;-74
2021/11/20 12:44:43;;;;;;;33.22;19.77;;;8.90;99.90;;;;;;5034357;28;20492;-74
2021/11/20 12:47:14;;;;;;;32.08;19.08;;;8.90;99.90;;;;;;5034207;28;20052;-75
2021/11/20 12:50:00;;;;;;;43.53;21.85;;;9.00;99.90;;;;;;5016279;28;20087;-76
2021/11/20 12:52:33;;;;;;;34.47;20.30;;;9.00;99.90;;;;;;4986288;28;20060;-76
2021/11/20 12:55:04;;;;;;;33.78;19.42;;;9.10;99.90;;;;;;5015641;28;20048;-74
2021/11/20 12:57:39;;;;;;;29.45;18.02;;;9.00;99.90;;;;;;5033851;28;20044;-75
2021/11/20 13:00:07;;;;;;;35.70;19.40;;;9.00;99.90;;;;;;5034088;28;20017;-74
2021/11/20 13:02:58;;;;;;;37.00;20.60;;;9.00;99.90;;;;;;5033706;28;20537;-74
2021/11/20 13:05:39;;;;;;;34.15;20.83;;;9.10;99.90;;;;;;5033909;28;20022;-74
2021/11/20 13:08:08;;;;;;;41.22;20.90;;;9.00;99.90;;;;;;5034248;28;20026;-75